• Join FlightAware (Why Join?)
  • Login
  • US Flag 
10:56PM EDT


 

Airport Tracker/Info


-or-


 

Live Flight TrackerFlight Track Log ✈ EJA839 ✈ 23-Jul-2013 ✈ KTEB - KCMH

Flight Track Log - Related Links

Times and Time Zones

All times are in EDT time to prevent confusion due to time zone crossing. See the EJA839 flight status page for this flight to view local times or setup timezone preferences in your user account.

Time Position Orientation Groundspeed Altitude Reporting Facility
EDT Latitude Longitude Course Direction KTS MPH feet Rate Location/Type
05:58PM 40.8333 -74.1000 255° West 182 209 1,600  Level New York TRACON
05:59PM 40.8167 -74.1833 255° West 194 223 1,800 1,500 Climbing New York TRACON
06:00PM 40.8167 -74.2500 270° West 205 236 4,600 2,520 Climbing New York TRACON
06:02PM 40.8331 -74.4625 276° West 276 318 10,200 2,580 Climbing New York Center
06:03PM 40.8294 -74.5803 268° West 287 330 13,200 2,700 Climbing New York Center
06:04PM 40.8242 -74.6733 266° West 294 338 15,700 2,520 Climbing New York Center
06:05PM 40.8181 -74.7936 266° West 292 336 18,300 2,340 Climbing New York Center
06:06PM 40.8144 -74.9003 267° West 292 336 20,400 1,980 Climbing New York Center
06:07PM 40.7942 -75.0031 255° West 297 342 22,400 1,920 Climbing New York Center
06:08PM 40.7633 -75.1056 248° West 302 348 24,400 1,920 Climbing New York Center
06:09PM 40.7281 -75.2100 246° West 312 359 26,300 1,800 Climbing New York Center
06:10PM 40.6931 -75.3117 246° West 307 353 28,100 1,740 Climbing New York Center
06:11PM 40.6600 -75.4108 246° West 307 353 29,800 1,740 Climbing New York Center
06:12PM 40.6289 -75.5097 248° West 300 345 31,600 1,680 Climbing New York Center
06:13PM 40.5958 -75.6058 246° West 300 345 33,300 1,620 Climbing New York Center
06:14PM 40.5647 -75.7022 247° West 289 333 34,800 1,320 Climbing New York Center
06:15PM 40.5336 -75.7983 247° West 289 333 35,900 540 Climbing New York Center
06:16PM 40.4981 -75.9019 246° West 300 345 36,000  Climbing New York Center
06:17PM 40.4533 -76.0189 243° Southwest 334 384 36,000  Level New York Center
06:18PM 40.4122 -76.1439 247° West 355 409 36,000  Level New York Center
06:19PM 40.3753 -76.2689 249° West 374 430 36,000  Level New York Center
06:20PM 40.3439 -76.4000 253° West 379 436 36,000  Level New York Center
06:21PM 40.3147 -76.5308 254° West 379 436 36,000  Level New York Center
06:22PM 40.2856 -76.6564 253° West 374 430 36,000  Level New York Center
06:23PM 40.2544 -76.7817 252° West 367 422 36,000  Level New York Center
06:24PM 40.2250 -76.9042 253° West 362 417 36,000  Level New York Center
06:25PM 40.1947 -77.0428 254° West 362 417 36,000  Level New York Center
06:26PM 40.1639 -77.1514 250° West 362 417 36,000  Level New York Center
06:27PM 40.1336 -77.2900 254° West 357 411 36,000  Level New York Center
06:28PM 40.1264 -77.4169 266° West 357 411 36,000  Level New York Center
06:29PM 40.1253 -77.5472 269° West 357 411 36,000  Level New York Center
06:31PM 40.1219 -77.8544 269° West 356 410 36,000  Level Cleveland Center
06:32PM 40.1147 -77.9850 266° West 362 417 36,000  Level Cleveland Center
06:33PM 40.1114 -78.1156 268° West 362 417 36,000 -480 Level Cleveland Center
06:34PM 40.1058 -78.2458 267° West 367 422 35,100 -1,200 Descending Cleveland Center
06:35PM 40.0981 -78.3819 266° West 367 422 33,600 -1,080 Descending Cleveland Center
06:36PM 40.0903 -78.5206 266° West 373 429 33,000 -600 Descending Cleveland Center
06:37PM 40.0986 -78.6506 275° West 368 423 32,500 -1,260 Descending Cleveland Center
06:38PM 40.1031 -78.7917 272° West 373 429 30,500 -2,040 Descending Cleveland Center
06:39PM 40.0989 -78.9328 268° West 384 442 28,500 -1,260 Descending Cleveland Center
06:40PM 40.0989 -79.0742 270° West 384 442 28,000 -300 Descending Cleveland Center
06:41PM 40.0986 -79.2097 270° West 384 442 28,000 -1,080 Level Cleveland Center
06:42PM 40.0961 -79.3617 269° West 384 442 25,900 -1,980 Descending Cleveland Center
06:43PM 40.0911 -79.4922 267° West 378 435 24,100 -960 Descending Cleveland Center
06:44PM 40.0778 -79.6144 262° West 365 420 24,000 -300 Descending Cleveland Center
06:45PM 40.0536 -79.7342 255° West 358 412 23,500 -1,500 Descending Cleveland Center
06:46PM 40.0272 -79.8483 253° West 341 392 21,100 -1,800 Descending Cleveland Center
06:47PM 40.0072 -79.9650 257° West 336 387 20,000 -600 Descending Cleveland Center
06:48PM 39.9828 -80.0736 254° West 326 375 20,000  Level Cleveland Center
06:49PM 39.9581 -80.1742 252° West 310 357 20,000 -780 Level Cleveland Center
06:50PM 39.9292 -80.2825 251° West 305 351 18,500 -1,800 Descending Cleveland Center
06:51PM 39.8981 -80.4017 251° West 325 374 16,400 -1,800 Descending Cleveland Center
06:52PM 39.8753 -80.5019 254° West 325 374 14,900 -1,380 Descending Cleveland Center
06:53PM 39.8483 -80.6156 253° West 330 380 13,700 -1,140 Descending Cleveland Center
06:54PM 39.8253 -80.7236 255° West 325 374 12,700 -780 Descending Cleveland Center
06:56PM 39.8122 -80.8889 264° West 313 360 11,900 -300 Descending Indianapolis Center
06:57PM 39.8192 -80.9953 275° West 297 342 12,100 60 Climbing Indianapolis Center
06:58PM 39.8281 -81.0994 276° West 293 337 12,100  Level Indianapolis Center
06:59PM 39.8375 -81.2050 277° West 294 338 12,100  Level Indianapolis Center
07:00PM 39.8467 -81.3092 277° West 291 335 12,100  Level Indianapolis Center
07:01PM 39.8589 -81.4256 278° West 276 318 12,100  Level Indianapolis Center
07:02PM 39.8697 -81.5206 278° West 269 310 12,100  Level Indianapolis Center
07:03PM 39.8794 -81.6197 277° West 273 314 12,100  Level Indianapolis Center
07:04PM 39.8803 -81.7194 271° West 273 314 12,100 -60 Level Indianapolis Center
07:05PM 39.8719 -81.8200 264° West 277 319 12,000 -300 Descending Indianapolis Center
07:06PM 39.8858 -81.9211 280° West 286 329 11,500 -1,020 Descending Indianapolis Center
07:07PM 39.9347 -81.9850 315° West 280 322 10,000 -720 Descending Indianapolis Center
07:08PM 39.9564 -82.0917 285° West 258 297 10,000 -360 Level Indianapolis Center
07:09PM 39.9592 -82.1981 272° West 286 329 9,300 -1,620 Descending Indianapolis Center
07:10PM 39.9717 -82.2808 281° West 262 302 6,700 -1,740 Descending Indianapolis Center
07:11PM 40.0039 -82.3475 302° West 224 258 5,800 -1,320 Descending Indianapolis Center
07:12PM 40.0025 -82.4219 269° West 206 237 4,000 -900 Descending Indianapolis Center
07:13PM 40.0011 -82.4964 269° West 204 235 4,000  Level Indianapolis Center
07:14PM 39.9992 -82.5731 268° West 208 239 4,000 -540 Level Indianapolis Center
07:15PM 39.9975 -82.6656 269° West 213 245 3,000 -600 Descending Indianapolis Center
07:16PM 39.9956 -82.7461 268° West 219 252 2,800 -420 Descending Indianapolis Center
07:17PM 39.9961 -82.7953 271° West 186 214 2,200 -780 Descending Indianapolis Center
07:18PM 39.9997 -82.8517 275° West 151 174 1,300 -540 Descending Indianapolis Center
07:19PM 40.0031 -82.8925 276° West 145 167 1,200 -120 Descending Indianapolis Center
07:21PM 39.9980 -82.8920 180° South  Level Estimated